createdAt,value
2018-10-09T00:01:22.836Z,8.48
2018-10-09T00:03:50.921Z,8.47
2018-10-09T00:06:18.980Z,8.45
2018-10-09T00:08:47.052Z,8.43
2018-10-09T00:11:15.120Z,8.43
2018-10-09T00:13:43.203Z,8.43
2018-10-09T00:16:11.340Z,8.39
2018-10-09T00:18:39.404Z,8.38
2018-10-09T00:21:08.503Z,8.35
2018-10-09T00:23:36.596Z,8.32
2018-10-09T00:26:04.712Z,8.32
2018-10-09T00:28:32.744Z,8.30
2018-10-09T00:31:00.804Z,8.29
2018-10-09T00:33:28.872Z,8.28
2018-10-09T00:35:56.921Z,8.27
2018-10-09T00:38:25.000Z,8.24
2018-10-09T00:40:53.073Z,8.25
2018-10-09T00:43:21.196Z,8.27
2018-10-09T00:45:49.280Z,8.31
2018-10-09T00:48:17.361Z,8.36
2018-10-09T00:50:45.931Z,8.38
2018-10-09T00:53:14.017Z,8.37
2018-10-09T00:55:42.085Z,8.36
2018-10-09T00:58:10.173Z,8.34
2018-10-09T01:00:38.258Z,8.35
2018-10-09T01:03:06.369Z,8.35
2018-10-09T01:05:34.428Z,8.37
2018-10-09T01:08:02.506Z,8.37
2018-10-09T01:10:30.577Z,8.35
2018-10-09T01:12:58.653Z,8.35
2018-10-09T01:15:26.749Z,8.34
2018-10-09T01:17:54.817Z,8.27
2018-10-09T01:20:27.941Z,8.22
2018-10-09T01:22:56.120Z,8.18
2018-10-09T01:25:24.193Z,8.18
2018-10-09T01:27:52.283Z,8.17
2018-10-09T01:30:20.431Z,8.15
2018-10-09T01:32:48.572Z,8.14
2018-10-09T01:35:16.649Z,8.11
2018-10-09T01:37:44.705Z,8.10
2018-10-09T01:40:12.764Z,8.08
2018-10-09T01:42:40.818Z,8.05
2018-10-09T01:45:08.888Z,8.05
2018-10-09T01:47:36.959Z,8.02
2018-10-09T01:50:05.030Z,8.01
2018-10-09T01:52:33.133Z,8.00
2018-10-09T01:55:01.271Z,7.99
2018-10-09T01:57:29.360Z,7.99
2018-10-09T01:59:57.512Z,7.96
2018-10-09T02:02:25.639Z,7.94
2018-10-09T02:04:53.935Z,7.94
2018-10-09T02:07:22.539Z,7.94
2018-10-09T02:09:50.579Z,7.92
2018-10-09T02:12:18.635Z,7.93
2018-10-09T02:14:46.704Z,7.93
2018-10-09T02:17:14.828Z,7.93
2018-10-09T02:19:42.900Z,7.91
2018-10-09T02:22:10.959Z,7.90
2018-10-09T02:24:39.032Z,7.88
2018-10-09T02:27:07.395Z,7.86
2018-10-09T02:29:35.464Z,7.84
2018-10-09T02:32:03.527Z,7.84
2018-10-09T02:34:31.580Z,7.83
2018-10-09T02:36:59.684Z,7.82
2018-10-09T02:39:27.743Z,7.78
2018-10-09T02:41:55.811Z,7.77
2018-10-09T02:44:23.939Z,7.74
2018-10-09T02:46:52.017Z,7.73
2018-10-09T02:49:20.088Z,7.71
2018-10-09T02:51:48.295Z,7.69
2018-10-09T02:54:16.377Z,7.66
2018-10-09T02:56:44.465Z,7.65
2018-10-09T02:59:12.580Z,7.64
2018-10-09T03:01:40.679Z,7.62
2018-10-09T03:04:08.755Z,7.60
2018-10-09T03:06:36.844Z,7.61
2018-10-09T03:09:06.328Z,7.61
2018-10-09T03:11:34.400Z,7.59
2018-10-09T03:14:02.461Z,7.59
2018-10-09T03:16:30.573Z,7.61
2018-10-09T03:18:58.653Z,7.64
2018-10-09T03:21:26.775Z,7.65
2018-10-09T03:23:55.075Z,7.62
2018-10-09T03:26:23.152Z,7.69
2018-10-09T03:28:51.277Z,7.70
2018-10-09T03:31:19.376Z,7.70
2018-10-09T03:33:47.448Z,7.70
2018-10-09T03:36:15.591Z,7.67
2018-10-09T03:38:43.751Z,7.65
2018-10-09T03:41:11.858Z,7.63
2018-10-09T03:43:39.982Z,7.62
2018-10-09T03:46:08.125Z,7.60
2018-10-09T03:48:36.704Z,7.59
2018-10-09T03:51:04.795Z,7.57
2018-10-09T03:53:32.921Z,7.54
2018-10-09T03:56:01.032Z,7.49
2018-10-09T03:58:29.136Z,7.47
2018-10-09T04:00:57.242Z,7.42
2018-10-09T04:03:25.353Z,7.40
2018-10-09T04:05:53.424Z,7.37
2018-10-09T04:08:21.512Z,7.34
2018-10-09T04:10:49.625Z,7.30
2018-10-09T04:13:21.363Z,7.24
2018-10-09T04:15:49.524Z,7.23
2018-10-09T04:18:17.636Z,7.23
2018-10-09T04:20:45.809Z,7.22
2018-10-09T04:23:13.911Z,7.24
2018-10-09T04:25:41.995Z,7.24
2018-10-09T04:28:10.104Z,7.21
2018-10-09T04:30:38.244Z,7.15
2018-10-09T04:33:06.384Z,7.12
2018-10-09T04:35:34.543Z,7.12
2018-10-09T04:38:02.561Z,7.09
2018-10-09T04:40:30.623Z,7.10
2018-10-09T04:42:58.700Z,7.10
2018-10-09T04:45:29.162Z,7.12
2018-10-09T04:47:57.800Z,7.14
2018-10-09T04:50:25.862Z,7.16
2018-10-09T04:52:53.979Z,7.16
2018-10-09T04:55:22.132Z,7.15
2018-10-09T04:57:50.263Z,7.17
2018-10-09T05:00:18.567Z,7.18
2018-10-09T05:02:46.862Z,7.18
2018-10-09T05:05:14.961Z,7.21
2018-10-09T05:07:43.031Z,7.23
2018-10-09T05:10:11.124Z,7.25
2018-10-09T05:12:39.352Z,7.29
2018-10-09T05:15:07.516Z,7.30
2018-10-09T05:17:35.972Z,7.32
2018-10-09T05:20:04.372Z,7.35
2018-10-09T05:22:32.436Z,7.36
2018-10-09T05:25:00.528Z,7.37
2018-10-09T05:27:28.620Z,7.37
2018-10-09T05:29:56.683Z,7.36
2018-10-09T05:32:24.742Z,7.36
2018-10-09T05:34:52.816Z,7.31
2018-10-09T05:37:20.892Z,7.30
2018-10-09T05:39:49.048Z,7.28
2018-10-09T05:42:17.132Z,7.27
2018-10-09T05:44:45.335Z,7.27
2018-10-09T05:47:13.815Z,7.29
2018-10-09T05:49:42.963Z,7.28
2018-10-09T05:52:11.021Z,7.28
2018-10-09T05:54:39.960Z,7.30
2018-10-09T05:57:08.880Z,7.33
2018-10-09T05:59:36.933Z,7.34
2018-10-09T06:02:08.148Z,7.38
2018-10-09T06:04:36.238Z,7.44
2018-10-09T06:07:04.316Z,7.50
2018-10-09T06:09:32.379Z,7.57
2018-10-09T06:12:00.447Z,7.67
2018-10-09T06:14:28.511Z,7.73
2018-10-09T06:16:56.592Z,7.82
2018-10-09T06:19:24.636Z,7.89
2018-10-09T06:21:52.721Z,7.95
2018-10-09T06:24:20.784Z,8.05
2018-10-09T06:26:48.831Z,8.19
2018-10-09T06:29:17.978Z,8.33
2018-10-09T06:31:46.179Z,8.49
2018-10-09T06:34:14.276Z,8.70
2018-10-09T06:36:42.616Z,8.94
2018-10-09T06:39:11.484Z,9.10
2018-10-09T06:41:40.275Z,9.14
2018-10-09T06:44:08.367Z,9.21
2018-10-09T06:46:36.597Z,9.32
2018-10-09T06:49:04.860Z,9.45
2018-10-09T06:51:33.039Z,9.56
2018-10-09T06:54:01.342Z,9.70
2018-10-09T06:56:29.421Z,9.98
2018-10-09T06:58:57.564Z,10.29
2018-10-09T07:01:25.744Z,10.47
2018-10-09T07:03:53.899Z,10.73
2018-10-09T07:06:22.114Z,10.94
2018-10-09T07:08:50.372Z,11.09
2018-10-09T07:11:18.640Z,11.35
2018-10-09T07:13:46.866Z,11.48
2018-10-09T07:16:15.075Z,11.51
2018-10-09T07:18:43.240Z,11.45
2018-10-09T07:21:11.521Z,11.46
2018-10-09T07:23:39.696Z,11.62
2018-10-09T07:26:07.880Z,11.92
2018-10-09T07:28:36.191Z,12.28
2018-10-09T07:31:04.478Z,12.57
2018-10-09T07:33:32.670Z,12.68
2018-10-09T07:36:00.840Z,12.70
2018-10-09T07:38:29.003Z,12.53
2018-10-09T07:40:57.144Z,12.36
2018-10-09T07:43:25.423Z,12.30
2018-10-09T07:45:53.623Z,12.36
2018-10-09T07:48:21.954Z,12.44
2018-10-09T07:50:50.152Z,12.48
2018-10-09T07:53:18.283Z,12.78
2018-10-09T07:55:46.505Z,13.16
2018-10-09T07:58:14.711Z,13.51
2018-10-09T08:00:43.165Z,13.97
2018-10-09T08:03:11.398Z,14.41
2018-10-09T08:05:39.696Z,14.85
2018-10-09T08:08:07.954Z,15.31
2018-10-09T08:10:36.253Z,15.50
2018-10-09T08:13:04.370Z,15.49
2018-10-09T08:15:32.584Z,15.72
2018-10-09T08:18:00.775Z,15.77
2018-10-09T08:20:28.969Z,15.86
2018-10-09T08:22:57.317Z,15.95
2018-10-09T08:25:25.492Z,16.18
2018-10-09T08:27:53.649Z,16.44
2018-10-09T08:30:21.873Z,16.33
2018-10-09T08:32:50.149Z,16.21
2018-10-09T08:35:20.724Z,16.14
2018-10-09T08:37:48.916Z,16.04
2018-10-09T08:40:17.189Z,15.92
2018-10-09T08:42:45.671Z,15.95
2018-10-09T08:45:13.851Z,15.93
2018-10-09T08:47:42.117Z,15.67
2018-10-09T08:50:10.357Z,15.57
2018-10-09T08:52:38.516Z,15.48
2018-10-09T08:55:06.659Z,15.39
2018-10-09T08:57:34.836Z,15.22
2018-10-09T09:00:03.023Z,15.07
2018-10-09T09:02:31.403Z,15.04
2018-10-09T09:04:59.660Z,15.04
2018-10-09T09:07:27.833Z,15.08
2018-10-09T09:09:56.121Z,15.06
2018-10-09T09:12:24.277Z,15.07
2018-10-09T09:14:52.617Z,15.11
2018-10-09T09:17:20.787Z,15.13
2018-10-09T09:19:49.051Z,15.21
2018-10-09T09:22:17.239Z,15.23
2018-10-09T09:24:45.564Z,15.21
2018-10-09T09:27:13.805Z,15.35
2018-10-09T09:29:41.933Z,15.52
2018-10-09T09:32:10.110Z,15.71
2018-10-09T09:34:38.283Z,15.83
2018-10-09T09:37:06.476Z,15.93
2018-10-09T09:39:34.633Z,16.01
2018-10-09T09:42:02.797Z,16.09
2018-10-09T09:44:30.953Z,16.16
2018-10-09T09:46:59.096Z,16.28
2018-10-09T09:49:27.213Z,16.34
2018-10-09T09:51:55.810Z,16.46
2018-10-09T09:54:24.009Z,16.54
2018-10-09T09:56:52.152Z,16.65
2018-10-09T09:59:20.399Z,16.68
2018-10-09T10:01:48.643Z,16.76
2018-10-09T10:04:16.830Z,16.81
2018-10-09T10:06:45.095Z,16.84
2018-10-09T10:09:13.272Z,17.00
2018-10-09T10:11:41.402Z,17.15
2018-10-09T10:14:09.905Z,17.25
2018-10-09T10:16:38.092Z,17.26
2018-10-09T10:19:06.457Z,17.39
2018-10-09T10:21:34.590Z,17.45
2018-10-09T10:24:03.756Z,17.57
2018-10-09T10:26:31.917Z,17.68
2018-10-09T10:29:00.230Z,17.82
2018-10-09T10:31:28.453Z,17.91
2018-10-09T10:33:56.624Z,18.03
2018-10-09T10:36:24.811Z,18.16
2018-10-09T10:38:53.005Z,18.32
2018-10-09T10:41:21.136Z,18.42
2018-10-09T10:43:49.341Z,18.53
2018-10-09T10:46:17.570Z,18.68
2018-10-09T10:48:58.902Z,18.84
2018-10-09T10:51:27.334Z,19.00
2018-10-09T10:53:55.816Z,19.13
2018-10-09T10:56:23.940Z,19.30
2018-10-09T10:58:52.085Z,19.40
2018-10-09T11:01:20.380Z,19.47
2018-10-09T11:03:48.474Z,19.59
2018-10-09T11:06:16.884Z,19.71
2018-10-09T11:08:45.039Z,19.77
2018-10-09T11:11:13.190Z,19.83
2018-10-09T11:13:41.389Z,19.89
2018-10-09T11:16:09.737Z,19.96
2018-10-09T11:18:38.025Z,20.01
2018-10-09T11:21:06.407Z,20.06
2018-10-09T11:23:34.497Z,20.15
2018-10-09T11:26:03.007Z,20.20
2018-10-09T11:28:31.689Z,20.30
2018-10-09T11:30:59.863Z,20.40
2018-10-09T11:33:28.217Z,20.38
2018-10-09T11:35:56.374Z,20.45
2018-10-09T11:38:24.639Z,20.56
2018-10-09T11:40:52.783Z,20.61
2018-10-09T11:43:21.066Z,20.65
2018-10-09T11:45:49.217Z,20.72
2018-10-09T11:48:17.355Z,20.77
2018-10-09T11:50:45.523Z,20.84
2018-10-09T11:53:13.717Z,20.91
2018-10-09T11:55:41.937Z,20.90
2018-10-09T11:58:10.229Z,20.89
2018-10-09T12:00:40.085Z,20.92
2018-10-09T12:03:08.247Z,20.91
2018-10-09T12:05:36.839Z,20.96
2018-10-09T12:08:04.990Z,20.96
2018-10-09T12:10:33.188Z,20.96
2018-10-09T12:13:01.812Z,21.00
2018-10-09T12:15:36.464Z,21.02
2018-10-09T12:18:04.617Z,21.06
2018-10-09T12:20:32.767Z,21.03
2018-10-09T12:23:00.891Z,21.06
2018-10-09T12:25:29.044Z,21.07
2018-10-09T12:27:57.196Z,21.07
2018-10-09T12:30:25.371Z,21.10
2018-10-09T12:32:53.618Z,21.09
2018-10-09T12:35:21.720Z,21.06
2018-10-09T12:37:49.930Z,21.02
2018-10-09T12:40:18.123Z,20.98
2018-10-09T12:42:46.292Z,20.96
2018-10-09T12:45:14.489Z,20.91
2018-10-09T12:47:42.560Z,20.86
2018-10-09T12:50:10.664Z,20.80
2018-10-09T12:52:39.236Z,20.74
2018-10-09T12:55:07.812Z,20.70
2018-10-09T12:57:35.901Z,20.65
2018-10-09T13:00:04.001Z,20.58
2018-10-09T13:02:32.106Z,20.50
2018-10-09T13:05:00.199Z,20.43
2018-10-09T13:07:28.320Z,20.36
2018-10-09T13:09:56.400Z,20.29
2018-10-09T13:12:24.464Z,20.27
2018-10-09T13:14:52.577Z,20.25
2018-10-09T13:17:20.693Z,20.21
2018-10-09T13:19:48.775Z,20.18
2018-10-09T13:22:17.257Z,20.16
2018-10-09T13:24:45.120Z,20.13
2018-10-09T13:27:13.247Z,20.13
2018-10-09T13:29:41.312Z,20.14
2018-10-09T13:32:09.400Z,20.15
2018-10-09T13:34:37.540Z,20.15
2018-10-09T13:37:05.691Z,20.16
2018-10-09T13:39:33.853Z,20.15
2018-10-09T13:42:01.936Z,20.15
2018-10-09T13:44:30.074Z,20.13
2018-10-09T13:46:58.227Z,20.12
2018-10-09T13:49:26.319Z,20.11
2018-10-09T13:51:54.424Z,20.10
2018-10-09T13:54:22.513Z,20.10
2018-10-09T13:56:50.617Z,20.12
2018-10-09T13:59:18.700Z,20.12
2018-10-09T14:01:46.788Z,20.13
2018-10-09T14:04:15.017Z,20.16
2018-10-09T14:06:43.115Z,20.16
2018-10-09T14:09:12.125Z,20.19
2018-10-09T14:11:40.511Z,20.22
2018-10-09T14:14:08.791Z,20.23
2018-10-09T14:16:37.096Z,20.23
2018-10-09T14:19:05.180Z,20.26
2018-10-09T14:21:33.283Z,20.28
2018-10-09T14:24:01.397Z,20.28
2018-10-09T14:26:29.500Z,20.29
2018-10-09T14:28:57.606Z,20.31
2018-10-09T14:31:25.680Z,20.31
2018-10-09T14:33:53.768Z,20.32
2018-10-09T14:36:21.900Z,20.31
2018-10-09T14:38:49.980Z,20.30
2018-10-09T14:41:18.099Z,20.29
2018-10-09T14:43:46.265Z,20.29
2018-10-09T14:46:14.462Z,20.29
2018-10-09T14:48:42.617Z,20.27
2018-10-09T14:51:10.893Z,20.24
2018-10-09T14:53:39.152Z,20.23
2018-10-09T14:56:07.304Z,20.23
2018-10-09T14:58:35.384Z,20.22
2018-10-09T15:01:03.492Z,20.23
2018-10-09T15:03:31.833Z,20.21
2018-10-09T15:05:59.854Z,20.20
2018-10-09T15:08:27.960Z,20.19
2018-10-09T15:10:56.048Z,20.17
2018-10-09T15:13:24.295Z,20.16
2018-10-09T15:15:52.403Z,20.14
2018-10-09T15:18:20.525Z,20.12
2018-10-09T15:20:48.616Z,20.09
2018-10-09T15:23:16.740Z,20.07
2018-10-09T15:25:44.827Z,20.06
2018-10-09T15:28:12.902Z,20.04
2018-10-09T15:30:40.972Z,20.01
2018-10-09T15:33:09.117Z,19.97
2018-10-09T15:35:38.217Z,19.95
2018-10-09T15:38:06.297Z,19.92
2018-10-09T15:40:34.376Z,19.91
2018-10-09T15:43:02.488Z,19.87
2018-10-09T15:45:30.594Z,19.81
2018-10-09T15:47:58.668Z,19.79
2018-10-09T15:50:26.778Z,19.73
2018-10-09T15:52:54.849Z,19.70
2018-10-09T15:55:23.012Z,19.67
2018-10-09T15:57:51.589Z,19.63
2018-10-09T16:00:19.689Z,19.60
2018-10-09T16:02:47.768Z,19.56
2018-10-09T16:05:16.188Z,19.53
2018-10-09T16:07:44.285Z,19.48
2018-10-09T16:10:12.427Z,19.44
2018-10-09T16:12:40.537Z,19.39
2018-10-09T16:15:08.701Z,19.32
2018-10-09T16:17:36.974Z,19.27
2018-10-09T16:20:05.857Z,19.21
2018-10-09T16:22:34.134Z,19.12
2018-10-09T16:25:02.325Z,19.05
2018-10-09T16:27:30.558Z,18.98
2018-10-09T16:29:58.633Z,18.87
2018-10-09T16:32:26.740Z,18.78
2018-10-09T16:34:54.805Z,18.69
2018-10-09T16:37:22.901Z,18.59
2018-10-09T16:39:51.056Z,18.51
2018-10-09T16:42:19.132Z,18.43
2018-10-09T16:44:47.232Z,18.36
2018-10-09T16:47:15.340Z,18.27
2018-10-09T16:49:43.417Z,18.18
2018-10-09T16:52:11.521Z,18.09
2018-10-09T16:54:39.724Z,18.00
2018-10-09T16:57:07.808Z,17.92
2018-10-09T16:59:35.907Z,17.82
2018-10-09T17:02:04.016Z,17.75
2018-10-09T17:04:32.225Z,17.65
2018-10-09T17:07:00.303Z,17.56
2018-10-09T17:09:28.425Z,17.48
2018-10-09T17:11:56.574Z,17.16
2018-10-09T17:14:24.675Z,17.33
2018-10-09T17:16:52.781Z,17.23
2018-10-09T17:19:20.860Z,17.20
2018-10-09T17:21:48.994Z,17.18
2018-10-09T17:24:17.177Z,17.15
2018-10-09T17:26:45.289Z,17.12
2018-10-09T17:29:13.362Z,17.06
2018-10-09T17:31:41.468Z,17.01
2018-10-09T17:34:09.560Z,16.94
2018-10-09T17:36:37.987Z,16.88
2018-10-09T17:39:08.567Z,16.81
2018-10-09T17:41:36.733Z,16.76
2018-10-09T17:44:04.824Z,16.73
2018-10-09T17:46:33.090Z,16.69
2018-10-09T17:49:01.044Z,16.65
2018-10-09T17:51:29.201Z,16.58
2018-10-09T17:53:57.288Z,16.51
2018-10-09T17:56:25.404Z,16.45
2018-10-09T17:58:53.523Z,16.37
2018-10-09T18:01:21.696Z,16.28
2018-10-09T18:03:49.812Z,16.18
2018-10-09T18:06:17.885Z,16.08
2018-10-09T18:08:46.049Z,16.00
2018-10-09T18:11:14.144Z,15.89
2018-10-09T18:13:42.278Z,15.80
2018-10-09T18:16:10.391Z,15.72
2018-10-09T18:18:38.554Z,15.62
2018-10-09T18:21:06.659Z,15.54
2018-10-09T18:23:34.769Z,15.46
2018-10-09T18:26:02.853Z,15.39
2018-10-09T18:28:31.245Z,15.32
2018-10-09T18:30:59.375Z,15.23
2018-10-09T18:33:27.494Z,15.15
2018-10-09T18:35:55.575Z,15.08
2018-10-09T18:38:23.792Z,15.00
2018-10-09T18:40:52.054Z,14.94
2018-10-09T18:43:20.017Z,14.87
2018-10-09T18:45:48.121Z,14.82
2018-10-09T18:48:16.274Z,14.75
2018-10-09T18:50:44.453Z,14.70
2018-10-09T18:53:12.638Z,14.65
2018-10-09T18:55:40.821Z,14.61
2018-10-09T18:58:09.013Z,14.57
2018-10-09T19:00:37.826Z,14.52
2018-10-09T19:03:06.074Z,14.49
2018-10-09T19:05:34.246Z,14.46
2018-10-09T19:08:02.388Z,14.41
2018-10-09T19:10:30.601Z,14.34
2018-10-09T19:12:59.242Z,14.32
2018-10-09T19:15:27.612Z,14.27
2018-10-09T19:17:55.997Z,14.24
2018-10-09T19:20:24.289Z,14.19
2018-10-09T19:22:53.605Z,14.14
2018-10-09T19:25:21.961Z,14.07
2018-10-09T19:27:50.364Z,14.00
2018-10-09T19:30:18.489Z,13.96
2018-10-09T19:32:46.800Z,13.89
2018-10-09T19:35:14.852Z,13.82
2018-10-09T19:37:43.800Z,13.77
2018-10-09T19:40:12.031Z,13.74
2018-10-09T19:42:40.242Z,13.68
2018-10-09T19:45:08.416Z,13.64
2018-10-09T19:47:38.641Z,13.62
2018-10-09T19:50:08.324Z,13.60
2018-10-09T19:52:37.027Z,13.56
2018-10-09T19:55:05.500Z,13.55
2018-10-09T19:57:33.672Z,13.52
2018-10-09T20:00:01.872Z,13.48
2018-10-09T20:02:30.041Z,13.46
2018-10-09T20:04:58.199Z,13.40
2018-10-09T20:07:26.478Z,13.35
2018-10-09T20:09:54.644Z,13.32
2018-10-09T20:12:22.856Z,13.29
2018-10-09T20:14:51.099Z,13.25
2018-10-09T20:17:19.293Z,13.21
2018-10-09T20:19:47.489Z,13.16
2018-10-09T20:22:15.684Z,13.10
2018-10-09T20:24:44.038Z,13.06
2018-10-09T20:27:12.116Z,13.01
2018-10-09T20:29:40.409Z,12.97
2018-10-09T20:32:08.583Z,12.94
2018-10-09T20:34:36.775Z,12.91
2018-10-09T20:37:04.916Z,12.88
2018-10-09T20:39:33.110Z,12.85
2018-10-09T20:42:01.423Z,12.84
2018-10-09T20:44:29.541Z,12.81
2018-10-09T20:46:57.706Z,12.77
2018-10-09T20:49:25.872Z,12.74
2018-10-09T20:51:54.073Z,12.70
2018-10-09T20:54:22.349Z,12.65
2018-10-09T20:56:50.526Z,12.63
2018-10-09T20:59:18.684Z,12.60
2018-10-09T21:01:46.839Z,12.58
2018-10-09T21:04:15.105Z,12.56
2018-10-09T21:06:43.382Z,12.54
2018-10-09T21:09:11.550Z,12.50
2018-10-09T21:11:39.744Z,12.45
2018-10-09T21:14:07.879Z,12.41
2018-10-09T21:16:36.017Z,12.39
2018-10-09T21:19:04.202Z,12.34
2018-10-09T21:21:32.353Z,12.30
2018-10-09T21:24:00.536Z,12.27
2018-10-09T21:26:28.791Z,12.23
2018-10-09T21:28:57.124Z,12.22
2018-10-09T21:31:25.264Z,12.19
2018-10-09T21:33:53.444Z,12.16
2018-10-09T21:36:21.915Z,12.14
2018-10-09T21:38:50.120Z,12.11
2018-10-09T21:41:18.546Z,12.06
2018-10-09T21:43:46.662Z,12.04
2018-10-09T21:46:14.883Z,12.01
2018-10-09T21:48:43.016Z,11.98
2018-10-09T21:51:11.143Z,11.96
2018-10-09T21:53:39.281Z,11.94
2018-10-09T21:56:13.757Z,11.92
2018-10-09T21:58:41.872Z,11.90
2018-10-09T22:01:11.750Z,11.90
2018-10-09T22:03:40.052Z,11.87
2018-10-09T22:06:08.721Z,11.87
2018-10-09T22:08:36.897Z,11.85
2018-10-09T22:11:05.073Z,11.84
2018-10-09T22:13:33.214Z,11.82
2018-10-09T22:16:01.417Z,11.79
2018-10-09T22:18:29.588Z,11.76
2018-10-09T22:20:57.715Z,11.73
2018-10-09T22:23:25.848Z,11.71
2018-10-09T22:25:54.073Z,11.69
2018-10-09T22:28:22.211Z,11.66
2018-10-09T22:30:50.506Z,11.62
2018-10-09T22:33:18.637Z,11.59
2018-10-09T22:35:46.769Z,11.54
2018-10-09T22:38:14.890Z,11.47
2018-10-09T22:40:43.050Z,11.41
2018-10-09T22:43:11.152Z,11.36
2018-10-09T22:45:39.290Z,11.34
2018-10-09T22:48:07.670Z,11.29
2018-10-09T22:50:35.772Z,11.25
2018-10-09T22:53:03.915Z,11.22
2018-10-09T22:55:32.063Z,11.17
2018-10-09T22:58:00.237Z,11.12
2018-10-09T23:00:28.369Z,11.09
2018-10-09T23:02:56.529Z,11.08
2018-10-09T23:05:24.694Z,11.04
2018-10-09T23:07:53.254Z,11.01
2018-10-09T23:10:21.384Z,10.99
2018-10-09T23:12:49.502Z,10.96
2018-10-09T23:15:17.604Z,10.89
2018-10-09T23:17:46.279Z,10.83
2018-10-09T23:20:14.399Z,10.78
2018-10-09T23:22:42.536Z,10.76
2018-10-09T23:25:10.904Z,10.74
2018-10-09T23:27:39.233Z,10.72
2018-10-09T23:30:08.180Z,10.71
2018-10-09T23:32:36.281Z,10.69
2018-10-09T23:35:04.460Z,10.69
2018-10-09T23:37:32.595Z,10.68
2018-10-09T23:40:00.742Z,10.67
2018-10-09T23:42:29.040Z,10.64
2018-10-09T23:44:57.398Z,10.61
2018-10-09T23:47:25.769Z,10.58
2018-10-09T23:49:53.864Z,10.56
2018-10-09T23:52:22.021Z,10.53
2018-10-09T23:54:50.115Z,10.52
2018-10-09T23:57:18.266Z,10.48
2018-10-09T23:59:46.457Z,10.45
